sensor_id;sensor_type;location;lat;lon;timestamp;P1;durP1;ratioP1;P2;durP2;ratioP2
43809;SDS011;29440;48.208;11.162;2024-01-07T00:01:23;21.13;;;9.82;;
43809;SDS011;29440;48.208;11.162;2024-01-07T00:03:50;21.27;;;10.23;;
43809;SDS011;29440;48.208;11.162;2024-01-07T00:06:17;19.30;;;9.43;;
43809;SDS011;29440;48.208;11.162;2024-01-07T00:08:42;23.05;;;9.43;;
43809;SDS011;29440;48.208;11.162;2024-01-07T00:11:08;16.75;;;8.65;;
43809;SDS011;29440;48.208;11.162;2024-01-07T00:13:34;21.95;;;10.90;;
43809;SDS011;29440;48.208;11.162;2024-01-07T00:16:00;22.75;;;10.50;;
43809;SDS011;29440;48.208;11.162;2024-01-07T00:18:26;19.95;;;10.55;;
43809;SDS011;29440;48.208;11.162;2024-01-07T00:20:52;20.60;;;9.82;;
43809;SDS011;29440;48.208;11.162;2024-01-07T00:23:19;23.67;;;10.65;;
43809;SDS011;29440;48.208;11.162;2024-01-07T00:25:46;23.20;;;10.65;;
43809;SDS011;29440;48.208;11.162;2024-01-07T00:28:12;23.98;;;11.10;;
43809;SDS011;29440;48.208;11.162;2024-01-07T00:30:38;20.65;;;10.73;;
43809;SDS011;29440;48.208;11.162;2024-01-07T00:33:03;18.92;;;10.30;;
43809;SDS011;29440;48.208;11.162;2024-01-07T00:35:29;22.45;;;11.07;;
43809;SDS011;29440;48.208;11.162;2024-01-07T00:37:55;20.27;;;9.82;;
43809;SDS011;29440;48.208;11.162;2024-01-07T00:40:22;18.17;;;9.88;;
43809;SDS011;29440;48.208;11.162;2024-01-07T00:42:48;21.42;;;10.55;;
43809;SDS011;29440;48.208;11.162;2024-01-07T00:45:14;24.40;;;10.90;;
43809;SDS011;29440;48.208;11.162;2024-01-07T00:47:40;21.17;;;10.70;;
43809;SDS011;29440;48.208;11.162;2024-01-07T00:50:06;19.27;;;9.52;;
43809;SDS011;29440;48.208;11.162;2024-01-07T00:52:32;23.35;;;10.82;;
43809;SDS011;29440;48.208;11.162;2024-01-07T00:54:58;20.15;;;10.02;;
43809;SDS011;29440;48.208;11.162;2024-01-07T00:57:23;22.42;;;10.48;;
43809;SDS011;29440;48.208;11.162;2024-01-07T00:59:49;20.27;;;9.65;;
43809;SDS011;29440;48.208;11.162;2024-01-07T01:02:15;21.20;;;10.63;;
43809;SDS011;29440;48.208;11.162;2024-01-07T01:04:41;20.88;;;10.63;;
43809;SDS011;29440;48.208;11.162;2024-01-07T01:07:07;22.70;;;10.80;;
43809;SDS011;29440;48.208;11.162;2024-01-07T01:09:33;21.05;;;10.13;;
43809;SDS011;29440;48.208;11.162;2024-01-07T01:11:59;24.58;;;11.23;;
43809;SDS011;29440;48.208;11.162;2024-01-07T01:14:25;25.73;;;11.05;;
43809;SDS011;29440;48.208;11.162;2024-01-07T01:16:51;24.08;;;11.15;;
43809;SDS011;29440;48.208;11.162;2024-01-07T01:19:17;25.35;;;11.35;;
43809;SDS011;29440;48.208;11.162;2024-01-07T01:21:43;23.02;;;10.38;;
43809;SDS011;29440;48.208;11.162;2024-01-07T01:24:08;23.40;;;11.48;;
43809;SDS011;29440;48.208;11.162;2024-01-07T01:26:34;22.27;;;10.38;;
43809;SDS011;29440;48.208;11.162;2024-01-07T01:29:00;18.30;;;9.57;;
43809;SDS011;29440;48.208;11.162;2024-01-07T01:31:26;19.88;;;10.18;;
43809;SDS011;29440;48.208;11.162;2024-01-07T01:33:52;20.15;;;10.43;;
43809;SDS011;29440;48.208;11.162;2024-01-07T01:36:17;18.65;;;9.90;;
43809;SDS011;29440;48.208;11.162;2024-01-07T01:38:43;18.52;;;9.85;;
43809;SDS011;29440;48.208;11.162;2024-01-07T01:41:08;18.92;;;10.32;;
43809;SDS011;29440;48.208;11.162;2024-01-07T01:43:34;19.33;;;9.88;;
43809;SDS011;29440;48.208;11.162;2024-01-07T01:46:01;19.13;;;10.13;;
43809;SDS011;29440;48.208;11.162;2024-01-07T01:48:28;18.70;;;9.80;;
43809;SDS011;29440;48.208;11.162;2024-01-07T01:50:54;22.73;;;9.68;;
43809;SDS011;29440;48.208;11.162;2024-01-07T01:53:22;19.17;;;9.20;;
43809;SDS011;29440;48.208;11.162;2024-01-07T01:55:50;19.65;;;10.05;;
43809;SDS011;29440;48.208;11.162;2024-01-07T01:58:16;18.45;;;9.98;;
43809;SDS011;29440;48.208;11.162;2024-01-07T02:00:44;17.63;;;9.25;;
43809;SDS011;29440;48.208;11.162;2024-01-07T02:03:10;17.10;;;8.93;;
43809;SDS011;29440;48.208;11.162;2024-01-07T02:05:36;16.50;;;9.00;;
43809;SDS011;29440;48.208;11.162;2024-01-07T02:08:02;16.80;;;9.15;;
43809;SDS011;29440;48.208;11.162;2024-01-07T02:10:28;15.73;;;8.45;;
43809;SDS011;29440;48.208;11.162;2024-01-07T02:12:59;17.98;;;9.65;;
43809;SDS011;29440;48.208;11.162;2024-01-07T02:15:25;18.13;;;9.07;;
43809;SDS011;29440;48.208;11.162;2024-01-07T02:17:53;16.88;;;8.60;;
43809;SDS011;29440;48.208;11.162;2024-01-07T02:20:19;18.98;;;9.00;;
43809;SDS011;29440;48.208;11.162;2024-01-07T02:22:45;16.58;;;8.63;;
43809;SDS011;29440;48.208;11.162;2024-01-07T02:25:11;15.43;;;8.13;;
43809;SDS011;29440;48.208;11.162;2024-01-07T02:27:37;15.55;;;8.18;;
43809;SDS011;29440;48.208;11.162;2024-01-07T02:30:03;15.43;;;8.20;;
43809;SDS011;29440;48.208;11.162;2024-01-07T02:32:29;15.50;;;8.38;;
43809;SDS011;29440;48.208;11.162;2024-01-07T02:35:01;13.52;;;7.82;;
43809;SDS011;29440;48.208;11.162;2024-01-07T02:37:27;15.82;;;8.02;;
43809;SDS011;29440;48.208;11.162;2024-01-07T02:39:53;15.05;;;7.85;;
43809;SDS011;29440;48.208;11.162;2024-01-07T02:42:18;14.75;;;8.07;;
43809;SDS011;29440;48.208;11.162;2024-01-07T02:44:44;13.32;;;7.75;;
43809;SDS011;29440;48.208;11.162;2024-01-07T02:47:10;15.25;;;8.07;;
43809;SDS011;29440;48.208;11.162;2024-01-07T02:49:35;15.05;;;7.32;;
43809;SDS011;29440;48.208;11.162;2024-01-07T02:52:01;15.80;;;8.07;;
43809;SDS011;29440;48.208;11.162;2024-01-07T02:54:26;13.48;;;7.05;;
43809;SDS011;29440;48.208;11.162;2024-01-07T02:56:52;11.88;;;7.35;;
43809;SDS011;29440;48.208;11.162;2024-01-07T02:59:21;13.90;;;7.80;;
43809;SDS011;29440;48.208;11.162;2024-01-07T03:01:56;13.18;;;7.28;;
43809;SDS011;29440;48.208;11.162;2024-01-07T03:04:21;14.82;;;6.90;;
43809;SDS011;29440;48.208;11.162;2024-01-07T03:06:47;13.00;;;7.10;;
43809;SDS011;29440;48.208;11.162;2024-01-07T03:09:13;14.27;;;6.95;;
43809;SDS011;29440;48.208;11.162;2024-01-07T03:11:39;15.18;;;7.80;;
43809;SDS011;29440;48.208;11.162;2024-01-07T03:14:06;11.68;;;7.20;;
43809;SDS011;29440;48.208;11.162;2024-01-07T03:16:32;12.68;;;7.03;;
43809;SDS011;29440;48.208;11.162;2024-01-07T03:18:58;12.45;;;6.70;;
43809;SDS011;29440;48.208;11.162;2024-01-07T03:21:25;12.50;;;6.88;;
43809;SDS011;29440;48.208;11.162;2024-01-07T03:23:51;11.68;;;6.50;;
43809;SDS011;29440;48.208;11.162;2024-01-07T03:26:17;12.52;;;7.35;;
43809;SDS011;29440;48.208;11.162;2024-01-07T03:28:44;13.98;;;6.75;;
43809;SDS011;29440;48.208;11.162;2024-01-07T03:31:14;12.23;;;6.75;;
43809;SDS011;29440;48.208;11.162;2024-01-07T03:33:42;14.88;;;7.50;;
43809;SDS011;29440;48.208;11.162;2024-01-07T03:36:08;12.27;;;7.00;;
43809;SDS011;29440;48.208;11.162;2024-01-07T03:38:35;13.48;;;6.82;;
43809;SDS011;29440;48.208;11.162;2024-01-07T03:41:01;12.20;;;6.60;;
43809;SDS011;29440;48.208;11.162;2024-01-07T03:43:27;10.85;;;6.00;;
43809;SDS011;29440;48.208;11.162;2024-01-07T03:45:53;13.10;;;6.70;;
43809;SDS011;29440;48.208;11.162;2024-01-07T03:48:19;11.90;;;6.25;;
43809;SDS011;29440;48.208;11.162;2024-01-07T03:50:44;12.00;;;6.93;;
43809;SDS011;29440;48.208;11.162;2024-01-07T03:53:10;14.45;;;6.97;;
43809;SDS011;29440;48.208;11.162;2024-01-07T03:55:36;13.95;;;7.63;;
43809;SDS011;29440;48.208;11.162;2024-01-07T03:58:01;12.15;;;6.78;;
43809;SDS011;29440;48.208;11.162;2024-01-07T04:00:28;11.10;;;6.53;;
43809;SDS011;29440;48.208;11.162;2024-01-07T04:02:53;14.95;;;7.50;;
43809;SDS011;29440;48.208;11.162;2024-01-07T04:05:19;11.73;;;6.82;;
43809;SDS011;29440;48.208;11.162;2024-01-07T04:07:44;15.52;;;7.72;;
43809;SDS011;29440;48.208;11.162;2024-01-07T04:10:10;14.48;;;7.97;;
43809;SDS011;29440;48.208;11.162;2024-01-07T04:12:36;13.73;;;8.55;;
43809;SDS011;29440;48.208;11.162;2024-01-07T04:15:02;14.32;;;8.48;;
43809;SDS011;29440;48.208;11.162;2024-01-07T04:17:28;14.57;;;8.13;;
43809;SDS011;29440;48.208;11.162;2024-01-07T04:19:54;14.65;;;8.18;;
43809;SDS011;29440;48.208;11.162;2024-01-07T04:22:20;13.35;;;7.78;;
43809;SDS011;29440;48.208;11.162;2024-01-07T04:24:46;16.17;;;8.20;;
43809;SDS011;29440;48.208;11.162;2024-01-07T04:27:11;15.95;;;8.48;;
43809;SDS011;29440;48.208;11.162;2024-01-07T04:29:37;17.42;;;8.85;;
43809;SDS011;29440;48.208;11.162;2024-01-07T04:32:02;16.60;;;9.13;;
43809;SDS011;29440;48.208;11.162;2024-01-07T04:34:28;17.08;;;9.23;;
43809;SDS011;29440;48.208;11.162;2024-01-07T04:36:54;17.23;;;9.57;;
43809;SDS011;29440;48.208;11.162;2024-01-07T04:39:19;19.38;;;9.75;;
43809;SDS011;29440;48.208;11.162;2024-01-07T04:41:45;18.42;;;9.60;;
43809;SDS011;29440;48.208;11.162;2024-01-07T04:44:10;19.02;;;10.05;;
43809;SDS011;29440;48.208;11.162;2024-01-07T04:46:39;18.00;;;9.40;;
43809;SDS011;29440;48.208;11.162;2024-01-07T04:49:05;19.73;;;10.07;;
43809;SDS011;29440;48.208;11.162;2024-01-07T04:51:31;22.98;;;9.98;;
43809;SDS011;29440;48.208;11.162;2024-01-07T04:53:57;20.00;;;9.75;;
43809;SDS011;29440;48.208;11.162;2024-01-07T04:56:23;20.60;;;8.90;;
43809;SDS011;29440;48.208;11.162;2024-01-07T04:58:49;17.13;;;9.52;;
43809;SDS011;29440;48.208;11.162;2024-01-07T05:01:14;23.77;;;11.38;;
43809;SDS011;29440;48.208;11.162;2024-01-07T05:03:40;22.70;;;10.48;;
43809;SDS011;29440;48.208;11.162;2024-01-07T05:06:08;22.98;;;11.60;;
43809;SDS011;29440;48.208;11.162;2024-01-07T05:08:36;22.67;;;10.65;;
43809;SDS011;29440;48.208;11.162;2024-01-07T05:11:03;20.63;;;10.23;;
43809;SDS011;29440;48.208;11.162;2024-01-07T05:13:29;21.70;;;10.82;;
43809;SDS011;29440;48.208;11.162;2024-01-07T05:15:55;25.85;;;11.68;;
43809;SDS011;29440;48.208;11.162;2024-01-07T05:18:21;25.10;;;11.90;;
43809;SDS011;29440;48.208;11.162;2024-01-07T05:20:50;19.60;;;10.27;;
43809;SDS011;29440;48.208;11.162;2024-01-07T05:23:16;26.02;;;12.65;;
43809;SDS011;29440;48.208;11.162;2024-01-07T05:25:42;26.08;;;11.88;;
43809;SDS011;29440;48.208;11.162;2024-01-07T05:28:09;24.92;;;12.25;;
43809;SDS011;29440;48.208;11.162;2024-01-07T05:30:38;21.58;;;11.35;;
43809;SDS011;29440;48.208;11.162;2024-01-07T05:33:04;23.17;;;11.77;;
43809;SDS011;29440;48.208;11.162;2024-01-07T05:35:30;26.58;;;12.93;;
43809;SDS011;29440;48.208;11.162;2024-01-07T05:37:56;26.92;;;12.65;;
43809;SDS011;29440;48.208;11.162;2024-01-07T05:40:22;22.45;;;11.93;;
43809;SDS011;29440;48.208;11.162;2024-01-07T05:42:47;27.38;;;12.02;;
43809;SDS011;29440;48.208;11.162;2024-01-07T05:45:13;23.55;;;11.18;;
43809;SDS011;29440;48.208;11.162;2024-01-07T05:47:39;22.58;;;11.93;;
43809;SDS011;29440;48.208;11.162;2024-01-07T05:50:05;23.70;;;10.70;;
43809;SDS011;29440;48.208;11.162;2024-01-07T05:52:32;24.98;;;11.35;;
43809;SDS011;29440;48.208;11.162;2024-01-07T05:54:57;25.85;;;11.23;;
43809;SDS011;29440;48.208;11.162;2024-01-07T05:57:23;26.92;;;11.35;;
43809;SDS011;29440;48.208;11.162;2024-01-07T05:59:49;21.35;;;11.05;;
43809;SDS011;29440;48.208;11.162;2024-01-07T06:02:15;23.15;;;11.85;;
43809;SDS011;29440;48.208;11.162;2024-01-07T06:04:42;22.65;;;10.98;;
43809;SDS011;29440;48.208;11.162;2024-01-07T06:07:07;21.98;;;10.95;;
43809;SDS011;29440;48.208;11.162;2024-01-07T06:09:33;23.00;;;12.02;;
43809;SDS011;29440;48.208;11.162;2024-01-07T06:11:59;23.58;;;10.80;;
43809;SDS011;29440;48.208;11.162;2024-01-07T06:14:24;22.48;;;10.48;;
43809;SDS011;29440;48.208;11.162;2024-01-07T06:16:50;23.90;;;11.38;;
43809;SDS011;29440;48.208;11.162;2024-01-07T06:19:19;22.20;;;10.90;;
43809;SDS011;29440;48.208;11.162;2024-01-07T06:21:46;21.60;;;10.55;;
43809;SDS011;29440;48.208;11.162;2024-01-07T06:24:11;21.88;;;10.35;;
43809;SDS011;29440;48.208;11.162;2024-01-07T06:26:37;22.77;;;10.90;;
43809;SDS011;29440;48.208;11.162;2024-01-07T06:29:02;20.13;;;9.52;;
43809;SDS011;29440;48.208;11.162;2024-01-07T06:31:28;20.77;;;10.15;;
43809;SDS011;29440;48.208;11.162;2024-01-07T06:33:54;25.20;;;11.23;;
43809;SDS011;29440;48.208;11.162;2024-01-07T06:36:22;23.67;;;10.73;;
43809;SDS011;29440;48.208;11.162;2024-01-07T06:38:50;22.23;;;11.02;;
43809;SDS011;29440;48.208;11.162;2024-01-07T06:41:16;22.70;;;10.80;;
43809;SDS011;29440;48.208;11.162;2024-01-07T06:43:41;24.77;;;10.07;;
43809;SDS011;29440;48.208;11.162;2024-01-07T06:46:07;28.30;;;11.10;;
43809;SDS011;29440;48.208;11.162;2024-01-07T06:48:33;25.52;;;10.85;;
43809;SDS011;29440;48.208;11.162;2024-01-07T06:50:58;23.60;;;10.43;;
43809;SDS011;29440;48.208;11.162;2024-01-07T06:53:24;24.08;;;11.50;;
43809;SDS011;29440;48.208;11.162;2024-01-07T06:55:49;21.95;;;10.73;;
43809;SDS011;29440;48.208;11.162;2024-01-07T06:58:15;24.08;;;11.55;;
43809;SDS011;29440;48.208;11.162;2024-01-07T07:00:40;23.05;;;10.85;;
43809;SDS011;29440;48.208;11.162;2024-01-07T07:03:06;26.42;;;11.50;;
43809;SDS011;29440;48.208;11.162;2024-01-07T07:05:33;22.92;;;11.07;;
43809;SDS011;29440;48.208;11.162;2024-01-07T07:07:58;22.05;;;9.70;;
43809;SDS011;29440;48.208;11.162;2024-01-07T07:10:24;26.52;;;12.43;;
43809;SDS011;29440;48.208;11.162;2024-01-07T07:12:50;24.15;;;11.23;;
43809;SDS011;29440;48.208;11.162;2024-01-07T07:15:16;25.23;;;10.93;;
43809;SDS011;29440;48.208;11.162;2024-01-07T07:17:42;22.40;;;10.15;;
43809;SDS011;29440;48.208;11.162;2024-01-07T07:20:08;22.98;;;10.57;;
43809;SDS011;29440;48.208;11.162;2024-01-07T07:22:34;23.70;;;10.30;;
43809;SDS011;29440;48.208;11.162;2024-01-07T07:24:59;22.25;;;10.63;;
43809;SDS011;29440;48.208;11.162;2024-01-07T07:27:25;25.73;;;11.48;;
43809;SDS011;29440;48.208;11.162;2024-01-07T07:30:01;21.20;;;10.38;;
43809;SDS011;29440;48.208;11.162;2024-01-07T07:32:27;21.67;;;10.75;;
43809;SDS011;29440;48.208;11.162;2024-01-07T07:34:52;22.60;;;10.93;;
43809;SDS011;29440;48.208;11.162;2024-01-07T07:37:18;25.70;;;10.57;;
43809;SDS011;29440;48.208;11.162;2024-01-07T07:39:43;21.20;;;10.30;;
43809;SDS011;29440;48.208;11.162;2024-01-07T07:42:09;21.42;;;9.20;;
43809;SDS011;29440;48.208;11.162;2024-01-07T07:44:35;24.42;;;10.93;;
43809;SDS011;29440;48.208;11.162;2024-01-07T07:47:01;22.15;;;9.35;;
43809;SDS011;29440;48.208;11.162;2024-01-07T07:49:26;22.08;;;9.52;;
43809;SDS011;29440;48.208;11.162;2024-01-07T07:51:52;19.25;;;9.27;;
43809;SDS011;29440;48.208;11.162;2024-01-07T07:54:19;18.75;;;9.77;;
43809;SDS011;29440;48.208;11.162;2024-01-07T07:56:44;22.17;;;9.73;;
43809;SDS011;29440;48.208;11.162;2024-01-07T07:59:10;20.20;;;9.00;;
43809;SDS011;29440;48.208;11.162;2024-01-07T08:01:37;22.02;;;10.38;;
43809;SDS011;29440;48.208;11.162;2024-01-07T08:04:02;27.15;;;10.73;;
43809;SDS011;29440;48.208;11.162;2024-01-07T08:06:30;26.17;;;11.40;;
43809;SDS011;29440;48.208;11.162;2024-01-07T08:08:56;23.67;;;10.13;;
43809;SDS011;29440;48.208;11.162;2024-01-07T08:11:21;22.80;;;9.07;;
43809;SDS011;29440;48.208;11.162;2024-01-07T08:13:47;20.42;;;9.10;;
43809;SDS011;29440;48.208;11.162;2024-01-07T08:16:12;21.10;;;9.05;;
43809;SDS011;29440;48.208;11.162;2024-01-07T08:18:38;23.73;;;10.35;;
43809;SDS011;29440;48.208;11.162;2024-01-07T08:21:07;28.10;;;13.30;;
43809;SDS011;29440;48.208;11.162;2024-01-07T08:23:46;21.25;;;11.27;;
43809;SDS011;29440;48.208;11.162;2024-01-07T08:26:12;23.83;;;10.65;;
43809;SDS011;29440;48.208;11.162;2024-01-07T08:28:37;21.25;;;9.93;;
43809;SDS011;29440;48.208;11.162;2024-01-07T08:31:03;21.92;;;11.52;;
43809;SDS011;29440;48.208;11.162;2024-01-07T08:33:29;25.95;;;10.32;;
43809;SDS011;29440;48.208;11.162;2024-01-07T08:35:56;18.67;;;9.23;;
43809;SDS011;29440;48.208;11.162;2024-01-07T08:38:22;18.60;;;8.93;;
43809;SDS011;29440;48.208;11.162;2024-01-07T08:40:47;22.52;;;8.70;;
43809;SDS011;29440;48.208;11.162;2024-01-07T08:43:13;17.77;;;9.27;;
43809;SDS011;29440;48.208;11.162;2024-01-07T08:45:39;19.73;;;9.32;;
43809;SDS011;29440;48.208;11.162;2024-01-07T08:48:05;19.85;;;9.35;;
43809;SDS011;29440;48.208;11.162;2024-01-07T08:50:31;20.77;;;9.77;;
43809;SDS011;29440;48.208;11.162;2024-01-07T08:52:56;19.60;;;9.27;;
43809;SDS011;29440;48.208;11.162;2024-01-07T08:55:22;26.15;;;11.35;;
43809;SDS011;29440;48.208;11.162;2024-01-07T08:57:47;23.25;;;10.43;;
43809;SDS011;29440;48.208;11.162;2024-01-07T09:00:14;26.75;;;11.48;;
43809;SDS011;29440;48.208;11.162;2024-01-07T09:02:40;21.50;;;10.13;;
43809;SDS011;29440;48.208;11.162;2024-01-07T09:05:05;24.80;;;10.32;;
43809;SDS011;29440;48.208;11.162;2024-01-07T09:07:31;30.95;;;13.95;;
43809;SDS011;29440;48.208;11.162;2024-01-07T09:09:57;26.25;;;11.13;;
43809;SDS011;29440;48.208;11.162;2024-01-07T09:12:26;21.15;;;10.75;;
43809;SDS011;29440;48.208;11.162;2024-01-07T09:14:57;23.75;;;10.40;;
43809;SDS011;29440;48.208;11.162;2024-01-07T09:17:22;22.40;;;10.55;;
43809;SDS011;29440;48.208;11.162;2024-01-07T09:19:48;22.83;;;11.20;;
43809;SDS011;29440;48.208;11.162;2024-01-07T09:22:13;29.15;;;11.32;;
43809;SDS011;29440;48.208;11.162;2024-01-07T09:24:39;23.45;;;10.80;;
43809;SDS011;29440;48.208;11.162;2024-01-07T09:27:05;22.35;;;10.52;;
43809;SDS011;29440;48.208;11.162;2024-01-07T09:29:30;20.58;;;10.73;;
43809;SDS011;29440;48.208;11.162;2024-01-07T09:31:57;24.88;;;11.80;;
43809;SDS011;29440;48.208;11.162;2024-01-07T09:34:22;29.50;;;12.77;;
43809;SDS011;29440;48.208;11.162;2024-01-07T09:36:48;24.23;;;11.55;;
43809;SDS011;29440;48.208;11.162;2024-01-07T09:39:14;32.45;;;13.82;;
43809;SDS011;29440;48.208;11.162;2024-01-07T09:41:42;27.90;;;12.05;;
43809;SDS011;29440;48.208;11.162;2024-01-07T09:44:11;28.50;;;11.57;;
43809;SDS011;29440;48.208;11.162;2024-01-07T09:46:37;23.73;;;11.30;;
43809;SDS011;29440;48.208;11.162;2024-01-07T09:49:04;73.28;;;27.85;;
43809;SDS011;29440;48.208;11.162;2024-01-07T09:51:29;49.78;;;21.70;;
43809;SDS011;29440;48.208;11.162;2024-01-07T09:54:02;24.38;;;9.48;;
43809;SDS011;29440;48.208;11.162;2024-01-07T09:56:32;28.45;;;13.00;;
43809;SDS011;29440;48.208;11.162;2024-01-07T09:59:05;20.13;;;9.73;;
43809;SDS011;29440;48.208;11.162;2024-01-07T10:01:32;22.88;;;10.13;;
43809;SDS011;29440;48.208;11.162;2024-01-07T10:03:59;21.77;;;9.68;;
43809;SDS011;29440;48.208;11.162;2024-01-07T10:06:25;20.58;;;9.38;;
43809;SDS011;29440;48.208;11.162;2024-01-07T10:08:53;19.38;;;9.25;;
43809;SDS011;29440;48.208;11.162;2024-01-07T10:11:20;28.05;;;12.80;;
43809;SDS011;29440;48.208;11.162;2024-01-07T10:13:46;17.48;;;8.65;;
43809;SDS011;29440;48.208;11.162;2024-01-07T10:16:16;23.27;;;10.50;;
43809;SDS011;29440;48.208;11.162;2024-01-07T10:18:42;24.27;;;11.13;;
43809;SDS011;29440;48.208;11.162;2024-01-07T10:21:08;16.73;;;8.18;;
43809;SDS011;29440;48.208;11.162;2024-01-07T10:23:34;19.98;;;8.88;;
43809;SDS011;29440;48.208;11.162;2024-01-07T10:25:59;19.73;;;9.35;;
43809;SDS011;29440;48.208;11.162;2024-01-07T10:28:27;12.90;;;7.05;;
43809;SDS011;29440;48.208;11.162;2024-01-07T10:30:52;17.67;;;9.25;;
43809;SDS011;29440;48.208;11.162;2024-01-07T10:33:18;19.40;;;8.77;;
43809;SDS011;29440;48.208;11.162;2024-01-07T10:35:48;18.60;;;9.27;;
43809;SDS011;29440;48.208;11.162;2024-01-07T10:38:22;18.55;;;8.80;;
43809;SDS011;29440;48.208;11.162;2024-01-07T10:40:48;18.13;;;8.98;;
43809;SDS011;29440;48.208;11.162;2024-01-07T10:43:17;20.85;;;8.02;;
43809;SDS011;29440;48.208;11.162;2024-01-07T10:45:44;15.75;;;6.53;;
43809;SDS011;29440;48.208;11.162;2024-01-07T10:48:13;17.90;;;8.07;;
43809;SDS011;29440;48.208;11.162;2024-01-07T10:50:44;20.20;;;8.98;;
43809;SDS011;29440;48.208;11.162;2024-01-07T10:53:12;17.55;;;8.20;;
43809;SDS011;29440;48.208;11.162;2024-01-07T10:55:42;19.02;;;7.80;;
43809;SDS011;29440;48.208;11.162;2024-01-07T10:58:18;18.20;;;8.23;;
43809;SDS011;29440;48.208;11.162;2024-01-07T11:00:45;17.00;;;8.43;;
43809;SDS011;29440;48.208;11.162;2024-01-07T11:03:17;16.27;;;6.28;;
43809;SDS011;29440;48.208;11.162;2024-01-07T11:05:47;14.10;;;5.75;;
43809;SDS011;29440;48.208;11.162;2024-01-07T11:11:00;14.95;;;7.45;;
43809;SDS011;29440;48.208;11.162;2024-01-07T11:13:38;14.10;;;6.82;;
43809;SDS011;29440;48.208;11.162;2024-01-07T11:16:05;17.58;;;8.00;;
43809;SDS011;29440;48.208;11.162;2024-01-07T11:18:39;15.32;;;6.90;;
43809;SDS011;29440;48.208;11.162;2024-01-07T11:21:10;14.68;;;6.22;;
43809;SDS011;29440;48.208;11.162;2024-01-07T11:26:11;12.25;;;5.05;;
43809;SDS011;29440;48.208;11.162;2024-01-07T11:31:18;12.98;;;5.35;;
43809;SDS011;29440;48.208;11.162;2024-01-07T11:33:47;10.60;;;5.72;;
43809;SDS011;29440;48.208;11.162;2024-01-07T11:36:14;14.48;;;6.60;;
43809;SDS011;29440;48.208;11.162;2024-01-07T11:38:42;13.93;;;6.55;;
43809;SDS011;29440;48.208;11.162;2024-01-07T11:41:09;12.05;;;4.53;;
43809;SDS011;29440;48.208;11.162;2024-01-07T11:43:36;10.60;;;4.68;;
43809;SDS011;29440;48.208;11.162;2024-01-07T11:46:02;13.70;;;5.57;;
43809;SDS011;29440;48.208;11.162;2024-01-07T11:48:28;13.43;;;5.32;;
43809;SDS011;29440;48.208;11.162;2024-01-07T11:50:54;13.43;;;6.20;;
43809;SDS011;29440;48.208;11.162;2024-01-07T11:53:20;8.65;;;4.75;;
43809;SDS011;29440;48.208;11.162;2024-01-07T11:55:46;13.77;;;5.95;;
43809;SDS011;29440;48.208;11.162;2024-01-07T11:58:12;9.98;;;5.38;;
43809;SDS011;29440;48.208;11.162;2024-01-07T12:00:38;11.27;;;4.82;;
43809;SDS011;29440;48.208;11.162;2024-01-07T12:03:03;12.38;;;6.10;;
43809;SDS011;29440;48.208;11.162;2024-01-07T12:05:29;11.00;;;4.38;;
43809;SDS011;29440;48.208;11.162;2024-01-07T12:07:55;12.75;;;5.85;;
43809;SDS011;29440;48.208;11.162;2024-01-07T12:10:22;15.10;;;6.57;;
43809;SDS011;29440;48.208;11.162;2024-01-07T12:12:49;13.48;;;6.95;;
43809;SDS011;29440;48.208;11.162;2024-01-07T12:15:17;13.07;;;6.70;;
43809;SDS011;29440;48.208;11.162;2024-01-07T12:17:54;10.80;;;5.78;;
43809;SDS011;29440;48.208;11.162;2024-01-07T12:20:23;17.33;;;6.53;;
43809;SDS011;29440;48.208;11.162;2024-01-07T12:22:49;9.80;;;4.55;;
43809;SDS011;29440;48.208;11.162;2024-01-07T12:25:20;8.52;;;4.80;;
43809;SDS011;29440;48.208;11.162;2024-01-07T12:27:50;10.38;;;5.28;;
43809;SDS011;29440;48.208;11.162;2024-01-07T12:30:20;9.25;;;5.05;;
43809;SDS011;29440;48.208;11.162;2024-01-07T12:32:51;11.93;;;5.80;;
43809;SDS011;29440;48.208;11.162;2024-01-07T12:35:17;11.10;;;5.22;;
43809;SDS011;29440;48.208;11.162;2024-01-07T12:37:43;9.75;;;4.53;;
43809;SDS011;29440;48.208;11.162;2024-01-07T12:40:09;12.35;;;5.78;;
43809;SDS011;29440;48.208;11.162;2024-01-07T12:42:36;11.27;;;5.30;;
43809;SDS011;29440;48.208;11.162;2024-01-07T12:45:05;10.02;;;4.78;;
43809;SDS011;29440;48.208;11.162;2024-01-07T12:47:31;11.95;;;5.45;;
43809;SDS011;29440;48.208;11.162;2024-01-07T12:49:57;10.50;;;5.38;;
43809;SDS011;29440;48.208;11.162;2024-01-07T12:52:23;12.55;;;6.03;;
43809;SDS011;29440;48.208;11.162;2024-01-07T12:54:49;16.55;;;7.05;;
43809;SDS011;29440;48.208;11.162;2024-01-07T12:57:14;11.45;;;5.50;;
43809;SDS011;29440;48.208;11.162;2024-01-07T12:59:40;14.48;;;6.70;;
43809;SDS011;29440;48.208;11.162;2024-01-07T13:02:08;11.02;;;5.82;;
43809;SDS011;29440;48.208;11.162;2024-01-07T13:04:36;29.02;;;10.77;;
43809;SDS011;29440;48.208;11.162;2024-01-07T13:07:02;18.17;;;8.40;;
43809;SDS011;29440;48.208;11.162;2024-01-07T13:09:28;13.68;;;7.53;;
43809;SDS011;29440;48.208;11.162;2024-01-07T13:11:57;15.50;;;7.85;;
43809;SDS011;29440;48.208;11.162;2024-01-07T13:14:23;14.57;;;7.05;;
43809;SDS011;29440;48.208;11.162;2024-01-07T13:16:49;19.13;;;9.90;;
43809;SDS011;29440;48.208;11.162;2024-01-07T13:19:14;10.85;;;5.55;;
43809;SDS011;29440;48.208;11.162;2024-01-07T13:21:40;14.43;;;5.55;;
43809;SDS011;29440;48.208;11.162;2024-01-07T13:24:05;11.45;;;6.30;;
43809;SDS011;29440;48.208;11.162;2024-01-07T13:26:31;10.50;;;6.13;;
43809;SDS011;29440;48.208;11.162;2024-01-07T13:28:57;12.73;;;6.70;;
43809;SDS011;29440;48.208;11.162;2024-01-07T13:31:22;13.50;;;7.13;;
43809;SDS011;29440;48.208;11.162;2024-01-07T13:33:48;11.77;;;6.35;;
43809;SDS011;29440;48.208;11.162;2024-01-07T13:36:14;10.93;;;6.00;;
43809;SDS011;29440;48.208;11.162;2024-01-07T13:38:40;12.32;;;5.93;;
43809;SDS011;29440;48.208;11.162;2024-01-07T13:41:07;12.68;;;6.25;;
43809;SDS011;29440;48.208;11.162;2024-01-07T13:43:33;13.43;;;6.40;;
43809;SDS011;29440;48.208;11.162;2024-01-07T13:45:59;7.82;;;4.65;;
43809;SDS011;29440;48.208;11.162;2024-01-07T13:48:25;11.73;;;5.45;;
43809;SDS011;29440;48.208;11.162;2024-01-07T13:50:53;11.30;;;5.97;;
43809;SDS011;29440;48.208;11.162;2024-01-07T13:53:23;13.05;;;6.28;;
43809;SDS011;29440;48.208;11.162;2024-01-07T13:55:48;15.10;;;7.10;;
43809;SDS011;29440;48.208;11.162;2024-01-07T13:58:14;11.18;;;5.95;;
43809;SDS011;29440;48.208;11.162;2024-01-07T14:00:40;11.73;;;6.45;;
43809;SDS011;29440;48.208;11.162;2024-01-07T14:03:06;9.10;;;4.50;;
43809;SDS011;29440;48.208;11.162;2024-01-07T14:05:32;12.30;;;6.25;;
43809;SDS011;29440;48.208;11.162;2024-01-07T14:07:58;9.55;;;5.18;;
43809;SDS011;29440;48.208;11.162;2024-01-07T14:10:24;10.60;;;5.53;;
43809;SDS011;29440;48.208;11.162;2024-01-07T14:12:50;11.10;;;5.47;;
43809;SDS011;29440;48.208;11.162;2024-01-07T14:15:16;12.98;;;7.28;;
43809;SDS011;29440;48.208;11.162;2024-01-07T14:17:43;15.48;;;6.90;;
43809;SDS011;29440;48.208;11.162;2024-01-07T14:20:11;12.75;;;6.97;;